Time;durP1;ratioP1;P1;durP2;ratioP2;P2;SDS_P1;SDS_P2;PMS_P1;PMS_P2;Temp;Humidity;BMP_temperature;BMP_pressure;BME280_temperature;BME280_humidity;BME280_pressure;Samples;Min_cycle;Max_cycle;Signal;HPM_P1;HPM_P2
2023/12/31 00:02:34;;;;;;;5.77;3.37;;;3.10;1.00;;;;;;8302195;28;20196;-83
2023/12/31 00:06:35;;;;;;;4.87;3.03;;;3.00;99.90;;;;;;8283327;28;20176;-83
2023/12/31 00:10:38;;;;;;;5.63;3.27;;;2.90;99.90;;;;;;8272275;28;20231;-83
2023/12/31 00:14:39;;;;;;;8.30;3.63;;;2.80;99.90;;;;;;8262301;28;20326;-83
2023/12/31 00:18:40;;;;;;;5.47;3.00;;;2.80;99.90;;;;;;8247671;28;20883;-82
2023/12/31 00:22:41;;;;;;;7.07;3.47;;;2.80;1.00;;;;;;8256803;28;20198;-82
2023/12/31 00:26:42;;;;;;;5.17;3.13;;;2.80;10.70;;;;;;8250387;28;20188;-83
2023/12/31 00:30:46;;;;;;;7.70;2.83;;;2.70;87.90;;;;;;8241453;28;20221;-83
2023/12/31 00:34:46;;;;;;;11.10;3.20;;;2.80;99.90;;;;;;8257268;28;20214;-83
2023/12/31 00:38:52;;;;;;;5.90;2.87;;;2.90;99.90;;;;;;8257274;28;20203;-81
2023/12/31 00:42:54;;;;;;;8.67;3.80;;;3.00;99.90;;;;;;8240080;28;20187;-81
2023/12/31 00:46:58;;;;;;;7.33;3.70;;;3.10;99.90;;;;;;8238280;28;20193;-81
2023/12/31 00:51:01;;;;;;;8.30;3.40;;;3.20;99.90;;;;;;8245028;28;20237;-80
2023/12/31 00:55:03;;;;;;;8.60;4.10;;;3.20;99.90;;;;;;8262840;28;20359;-80
2023/12/31 00:59:07;;;;;;;8.20;4.00;;;3.10;99.90;;;;;;8239204;28;20210;-80
2023/12/31 01:03:08;;;;;;;8.37;3.87;;;3.20;99.90;;;;;;8241939;28;20189;-80
2023/12/31 01:07:09;;;;;;;7.00;4.00;;;3.40;99.90;;;;;;8238284;28;20200;-80
2023/12/31 01:11:09;;;;;;;7.10;3.87;;;3.50;99.90;;;;;;8234895;28;20219;-80
2023/12/31 01:15:10;;;;;;;5.37;3.17;;;3.50;99.90;;;;;;8239738;28;20207;-81
2023/12/31 01:19:11;;;;;;;7.20;3.60;;;3.40;99.90;;;;;;8238481;28;20193;-81
2023/12/31 01:23:12;;;;;;;9.50;3.70;;;3.30;99.90;;;;;;8236171;28;20279;-80
2023/12/31 01:27:13;;;;;;;7.20;3.73;;;3.20;99.90;;;;;;8239483;28;20627;-80
2023/12/31 01:31:20;;;;;;;5.53;3.30;;;3.10;99.90;;;;;;8238451;28;20255;-80
2023/12/31 01:35:21;;;;;;;7.40;4.03;;;3.00;99.90;;;;;;8235609;28;20220;-80
2023/12/31 01:39:27;;;;;;;4.93;3.50;;;2.80;99.90;;;;;;8236949;28;20196;-80
2023/12/31 01:43:28;;;;;;;9.53;5.10;;;2.50;99.90;;;;;;8252868;28;20309;-80
2023/12/31 01:47:30;;;;;;;9.73;4.03;;;2.40;99.90;;;;;;8252859;28;20198;-80
2023/12/31 01:51:32;;;;;;;6.57;3.67;;;2.20;99.90;;;;;;8245404;28;20250;-80
2023/12/31 01:55:39;;;;;;;7.07;3.97;;;2.10;99.90;;;;;;8248398;28;20310;-80
2023/12/31 01:59:49;;;;;;;6.10;3.40;;;2.00;99.90;;;;;;8235381;28;20403;-80
2023/12/31 02:03:50;;;;;;;10.40;4.60;;;1.90;99.90;;;;;;8252960;28;20227;-80
2023/12/31 02:07:50;;;;;;;21.63;9.57;;;1.80;99.90;;;;;;8255264;28;20214;-80
2023/12/31 02:11:51;;;;;;;24.27;11.27;;;1.80;99.90;;;;;;8239230;28;20237;-80
2023/12/31 02:15:53;;;;;;;20.87;9.40;;;1.70;99.90;;;;;;8238399;28;20218;-80
2023/12/31 02:19:53;;;;;;;18.77;7.93;;;1.60;99.90;;;;;;8247176;28;20628;-80
2023/12/31 02:23:54;;;;;;;18.33;8.93;;;1.60;99.90;;;;;;8240966;28;20195;-80
2023/12/31 02:27:55;;;;;;;26.23;12.03;;;1.60;99.90;;;;;;8237505;28;20618;-80
2023/12/31 02:31:56;;;;;;;26.63;12.90;;;1.50;99.90;;;;;;8236458;28;20215;-80
2023/12/31 02:35:57;;;;;;;30.83;13.37;;;1.50;99.90;;;;;;8234733;28;20187;-80
2023/12/31 02:39:58;;;;;;;27.73;12.13;;;1.50;99.90;;;;;;8236962;28;20207;-79
2023/12/31 02:44:01;;;;;;;19.77;8.57;;;1.60;99.90;;;;;;8258615;28;20195;-80
2023/12/31 02:48:02;;;;;;;16.03;7.13;;;1.60;99.90;;;;;;8249319;28;20212;-80
2023/12/31 02:52:03;;;;;;;14.73;5.83;;;1.60;99.90;;;;;;8253047;28;20220;-80
2023/12/31 02:56:05;;;;;;;14.63;6.17;;;1.50;99.90;;;;;;8241978;28;20188;-81
2023/12/31 03:00:06;;;;;;;13.40;6.80;;;1.50;99.90;;;;;;8257205;28;20242;-80
2023/12/31 03:04:10;;;;;;;17.07;9.17;;;1.30;99.90;;;;;;8243828;28;20278;-79
2023/12/31 03:08:10;;;;;;;11.73;7.50;;;1.00;99.90;;;;;;8238647;28;20184;-80
2023/12/31 03:12:11;;;;;;;15.70;6.93;;;0.80;99.90;;;;;;8238821;28;20211;-80
2023/12/31 03:16:12;;;;;;;12.70;6.40;;;0.80;99.90;;;;;;8242462;28;20773;-80
2023/12/31 03:20:13;;;;;;;9.87;5.30;;;0.80;99.90;;;;;;8228307;28;20200;-80
2023/12/31 03:24:13;;;;;;;15.57;8.67;;;0.90;99.90;;;;;;8245416;28;20231;-79
2023/12/31 03:28:14;;;;;;;16.63;10.20;;;0.80;99.90;;;;;;8237303;28;20188;-81
2023/12/31 03:32:15;;;;;;;19.17;12.17;;;0.70;99.90;;;;;;8236273;28;20211;-81
2023/12/31 03:36:24;;;;;;;22.97;13.07;;;0.60;99.90;;;;;;8259552;28;20184;-80
2023/12/31 03:40:26;;;;;;;20.67;12.63;;;0.50;99.90;;;;;;8213329;28;20200;-79
2023/12/31 03:44:27;;;;;;;26.47;14.20;;;0.50;99.90;;;;;;8236512;28;20287;-81
2023/12/31 03:48:28;;;;;;;40.70;19.13;;;0.30;99.90;;;;;;8239449;28;20195;-79
2023/12/31 03:52:29;;;;;;;39.17;17.97;;;0.30;99.90;;;;;;8239280;28;20219;-81
2023/12/31 03:56:33;;;;;;;25.63;14.10;;;0.30;99.90;;;;;;8239950;28;20192;-80
2023/12/31 04:00:34;;;;;;;15.73;8.90;;;0.30;99.90;;;;;;8237618;28;20338;-81
2023/12/31 04:04:35;;;;;;;9.53;5.13;;;0.40;99.90;;;;;;8257307;28;20234;-80
2023/12/31 04:08:35;;;;;;;9.87;5.07;;;0.50;99.90;;;;;;8244271;28;20202;-80
2023/12/31 04:12:36;;;;;;;10.57;5.50;;;0.50;99.90;;;;;;8249148;28;20188;-81
2023/12/31 04:16:37;;;;;;;10.97;5.13;;;0.50;99.90;;;;;;8239942;28;20207;-81
2023/12/31 04:20:38;;;;;;;12.40;7.47;;;0.40;99.90;;;;;;8261274;28;20195;-79
2023/12/31 04:24:39;;;;;;;10.43;6.47;;;0.20;99.90;;;;;;8239212;28;20187;-80
2023/12/31 04:28:43;;;;;;;15.37;7.80;;;0.00;99.90;;;;;;8240425;28;20359;-80
2023/12/31 04:32:43;;;;;;;14.30;8.17;;;-0.10;99.90;;;;;;8239083;28;20184;-81
2023/12/31 04:36:45;;;;;;;12.23;7.80;;;-0.20;99.90;;;;;;8243546;28;20179;-80
2023/12/31 04:40:48;;;;;;;12.43;7.17;;;-0.20;99.90;;;;;;8258371;28;20274;-81
2023/12/31 04:44:49;;;;;;;12.50;5.63;;;-0.30;99.90;;;;;;8257660;28;20192;-80
2023/12/31 04:48:58;;;;;;;14.43;6.37;;;-0.30;99.90;;;;;;8239820;28;20282;-80
2023/12/31 04:52:59;;;;;;;14.20;6.13;;;-0.20;99.90;;;;;;8244536;28;20222;-80
2023/12/31 04:57:07;;;;;;;13.70;6.77;;;-0.10;99.90;;;;;;8247396;28;20184;-81
2023/12/31 05:01:13;;;;;;;11.93;6.83;;;0.20;99.90;;;;;;8258661;28;20267;-81
2023/12/31 05:05:14;;;;;;;16.23;11.13;;;0.50;99.90;;;;;;8257479;28;20188;-81
2023/12/31 05:09:14;;;;;;;21.13;15.17;;;0.70;99.90;;;;;;8242189;28;20208;-80
2023/12/31 05:13:15;;;;;;;27.00;18.70;;;0.70;99.90;;;;;;8236008;28;20192;-81
2023/12/31 05:17:16;;;;;;;21.07;16.93;;;0.70;99.90;;;;;;8239235;28;20265;-83
2023/12/31 05:21:17;;;;;;;25.47;17.70;;;0.80;99.90;;;;;;8243661;28;20227;-84
2023/12/31 05:25:18;;;;;;;29.07;18.43;;;0.90;99.90;;;;;;8258393;28;20184;-84
2023/12/31 05:29:22;;;;;;;26.10;16.67;;;0.80;99.90;;;;;;8236284;28;20370;-83
2023/12/31 05:33:26;;;;;;;32.73;18.87;;;0.70;99.90;;;;;;8261682;28;20184;-82
2023/12/31 05:37:27;;;;;;;24.67;13.50;;;0.70;99.90;;;;;;8258904;28;20223;-84
2023/12/31 05:41:30;;;;;;;32.97;19.40;;;0.90;99.90;;;;;;8257705;28;20185;-84
2023/12/31 05:45:31;;;;;;;35.60;20.33;;;1.00;99.90;;;;;;8254670;28;20262;-84
2023/12/31 05:49:35;;;;;;;33.13;17.17;;;1.00;99.90;;;;;;8243597;28;20211;-84
2023/12/31 05:53:36;;;;;;;34.60;18.03;;;1.00;99.90;;;;;;8240488;28;20191;-84
2023/12/31 05:57:38;;;;;;;29.33;18.27;;;1.10;99.90;;;;;;8240828;28;20186;-84
2023/12/31 06:01:39;;;;;;;35.43;20.60;;;1.20;99.90;;;;;;8262841;28;20227;-83
2023/12/31 06:05:40;;;;;;;49.47;25.50;;;1.20;99.90;;;;;;8277005;28;20176;-83
2023/12/31 06:09:41;;;;;;;42.47;23.23;;;1.20;99.90;;;;;;8283089;28;20304;-83
2023/12/31 06:13:41;;;;;;;39.50;22.80;;;1.20;99.90;;;;;;8283261;28;20226;-83
2023/12/31 06:17:42;;;;;;;37.23;21.03;;;1.30;99.90;;;;;;8305739;28;20275;-83
2023/12/31 06:21:43;;;;;;;28.70;17.13;;;1.20;99.90;;;;;;8253627;28;20207;-83
2023/12/31 06:25:44;;;;;;;35.30;19.93;;;1.00;99.90;;;;;;8243489;28;20194;-83
2023/12/31 06:29:44;;;;;;;39.27;25.00;;;0.80;99.90;;;;;;8256603;28;20212;-80
2023/12/31 06:33:45;;;;;;;162.40;66.70;;;0.70;99.90;;;;;;8255888;28;20197;-80
2023/12/31 06:37:46;;;;;;;131.00;57.93;;;0.60;99.90;;;;;;8256933;28;20195;-80
2023/12/31 06:41:47;;;;;;;139.27;60.23;;;0.50;99.90;;;;;;8238875;28;20280;-81
2023/12/31 06:45:49;;;;;;;89.63;48.43;;;0.30;99.90;;;;;;8232087;28;20195;-80
2023/12/31 06:49:52;;;;;;;91.30;46.00;;;0.20;99.90;;;;;;8239906;28;20208;-83
2023/12/31 06:53:59;;;;;;;80.37;42.57;;;0.10;99.90;;;;;;8169568;28;20227;-83
2023/12/31 06:58:06;;;;;;;81.60;41.83;;;0.00;99.90;;;;;;8218516;28;20326;-83
2023/12/31 07:02:06;;;;;;;78.13;41.73;;;0.00;99.90;;;;;;8245423;28;20431;-83
2023/12/31 07:06:10;;;;;;;88.17;47.23;;;0.00;99.90;;;;;;8245402;28;20192;-83
2023/12/31 07:10:11;;;;;;;80.40;41.10;;;0.00;99.90;;;;;;8255480;28;20250;-83
2023/12/31 07:14:12;;;;;;;61.13;35.23;;;0.00;99.90;;;;;;8246863;28;20195;-83
2023/12/31 07:18:13;;;;;;;63.47;35.63;;;0.20;99.90;;;;;;8240468;28;20188;-83
2023/12/31 07:22:14;;;;;;;67.13;37.37;;;0.30;99.90;;;;;;8239800;28;20213;-83
2023/12/31 07:26:30;;;;;;;75.10;42.87;;;0.50;99.90;;;;;;8236967;28;20235;-83
2023/12/31 07:30:31;;;;;;;106.93;60.43;;;0.70;99.90;;;;;;8248330;28;20541;-83
2023/12/31 07:34:34;;;;;;;81.07;48.30;;;0.90;99.90;;;;;;8246561;28;20266;-83
2023/12/31 07:38:35;;;;;;;78.93;48.60;;;1.10;99.90;;;;;;8247990;28;20203;-83
2023/12/31 07:42:39;;;;;;;79.03;48.70;;;1.20;99.90;;;;;;8254526;28;20195;-83
2023/12/31 07:47:06;;;;;;;68.60;45.83;;;1.30;99.90;;;;;;8241328;28;20758;-83
2023/12/31 07:51:13;;;;;;;56.67;35.53;;;1.50;99.90;;;;;;8191935;29;20252;-84
2023/12/31 07:55:17;;;;;;;65.53;41.03;;;1.70;99.90;;;;;;8198050;28;20309;-84
2023/12/31 07:59:18;;;;;;;70.87;46.27;;;1.80;99.90;;;;;;8189431;28;20220;-84
2023/12/31 08:03:19;;;;;;;82.97;44.40;;;2.00;99.90;;;;;;8207388;28;20204;-84
2023/12/31 08:07:23;;;;;;;80.73;49.73;;;2.10;99.90;;;;;;8215439;28;20197;-84
2023/12/31 08:11:24;;;;;;;73.13;47.13;;;2.30;99.90;;;;;;8235901;28;20230;-83
2023/12/31 08:15:25;;;;;;;88.00;54.67;;;2.50;99.90;;;;;;8225324;28;20223;-84
2023/12/31 08:19:25;;;;;;;73.07;48.43;;;2.60;99.90;;;;;;8250828;28;20191;-83
2023/12/31 08:23:26;;;;;;;80.90;50.13;;;2.60;99.90;;;;;;8249586;28;20255;-84
2023/12/31 08:27:27;;;;;;;84.17;52.57;;;2.70;99.90;;;;;;8246877;28;20202;-83
2023/12/31 08:31:28;;;;;;;133.03;73.27;;;2.80;99.90;;;;;;8258170;28;20217;-83
2023/12/31 08:35:29;;;;;;;193.73;85.23;;;3.00;99.90;;;;;;8249986;28;20176;-83
2023/12/31 08:39:29;;;;;;;156.00;77.10;;;3.10;99.90;;;;;;8248127;28;20238;-83
2023/12/31 08:43:33;;;;;;;135.97;77.00;;;3.20;99.90;;;;;;8261781;28;20192;-83
2023/12/31 08:47:34;;;;;;;98.73;57.80;;;3.20;99.90;;;;;;8259615;28;20253;-83
2023/12/31 08:51:35;;;;;;;103.53;59.20;;;3.20;99.90;;;;;;8266782;28;20212;-82
2023/12/31 08:55:36;;;;;;;114.10;65.40;;;3.30;99.90;;;;;;8242481;28;20191;-83
2023/12/31 08:59:37;;;;;;;178.53;83.60;;;3.30;99.90;;;;;;8242213;28;20204;-82
2023/12/31 09:03:38;;;;;;;148.33;70.40;;;3.50;99.90;;;;;;8247248;28;20226;-82
2023/12/31 09:07:42;;;;;;;65.47;36.23;;;3.70;99.90;;;;;;8260346;28;20307;-82
2023/12/31 09:11:43;;;;;;;24.77;13.67;;;3.90;99.90;;;;;;8279098;28;20210;-82
2023/12/31 09:15:47;;;;;;;14.20;9.43;;;4.20;99.90;;;;;;8288036;28;20200;-82
2023/12/31 09:19:48;;;;;;;22.27;13.87;;;4.40;99.90;;;;;;8299017;28;20184;-83
2023/12/31 09:23:49;;;;;;;20.17;12.97;;;4.60;99.90;;;;;;8307274;28;20192;-83
2023/12/31 09:27:53;;;;;;;22.03;15.43;;;4.80;99.90;;;;;;8250564;28;20191;-83
2023/12/31 09:31:54;;;;;;;11.50;7.10;;;5.00;99.90;;;;;;8239798;28;20225;-83
2023/12/31 09:35:55;;;;;;;13.63;7.17;;;5.20;99.90;;;;;;8248563;28;20307;-83
2023/12/31 09:39:56;;;;;;;12.57;7.77;;;5.40;99.90;;;;;;8249321;28;20183;-82
2023/12/31 09:43:57;;;;;;;12.07;7.70;;;5.60;99.90;;;;;;8283231;28;20358;-82
2023/12/31 09:48:01;;;;;;;11.53;6.83;;;5.80;99.90;;;;;;8240534;28;20211;-80
2023/12/31 09:52:04;;;;;;;10.50;6.13;;;6.10;99.90;;;;;;8245935;28;20274;-81
2023/12/31 09:56:06;;;;;;;10.63;6.03;;;6.30;99.90;;;;;;8260916;28;20191;-81
2023/12/31 10:00:08;;;;;;;9.40;5.70;;;6.50;99.90;;;;;;8244989;28;20207;-81
2023/12/31 10:04:09;;;;;;;11.57;6.73;;;6.60;71.20;;;;;;8239642;28;20287;-81
2023/12/31 10:08:11;;;;;;;13.47;7.57;;;6.70;99.90;;;;;;8242077;28;20204;-81
2023/12/31 10:12:12;;;;;;;11.47;7.07;;;6.60;1.00;;;;;;8245049;28;20226;-81
2023/12/31 10:16:13;;;;;;;12.90;7.57;;;6.60;1.00;;;;;;8242318;28;20235;-79
2023/12/31 10:20:19;;;;;;;9.63;7.00;;;6.70;99.90;;;;;;8245026;28;20636;-81
2023/12/31 10:24:30;;;;;;;9.97;6.97;;;6.80;99.90;;;;;;8246390;28;20195;-81
2023/12/31 10:28:31;;;;;;;14.03;7.13;;;6.90;99.90;;;;;;8240718;28;20203;-81
2023/12/31 10:32:32;;;;;;;13.07;7.97;;;7.10;99.90;;;;;;8250042;28;20228;-81
2023/12/31 10:36:35;;;;;;;11.00;7.17;;;7.10;99.90;;;;;;8241604;28;20294;-80
2023/12/31 10:40:36;;;;;;;10.47;7.27;;;7.00;99.90;;;;;;8241928;28;20191;-81
2023/12/31 10:44:38;;;;;;;13.40;7.53;;;7.10;99.90;;;;;;8242021;28;20267;-81
2023/12/31 10:48:46;;;;;;;17.10;8.63;;;7.20;99.90;;;;;;8242239;28;20577;-80
2023/12/31 10:52:53;;;;;;;12.90;8.23;;;7.20;99.90;;;;;;8222952;28;20215;-79
2023/12/31 10:56:55;;;;;;;12.93;7.73;;;7.30;99.90;;;;;;8240190;28;20271;-79
2023/12/31 11:00:56;;;;;;;12.47;6.83;;;7.30;99.90;;;;;;8239513;28;20231;-79
2023/12/31 11:04:58;;;;;;;12.67;7.70;;;7.30;99.90;;;;;;8243372;28;20361;-79
2023/12/31 11:08:59;;;;;;;12.00;8.03;;;7.30;99.90;;;;;;8241288;28;20187;-78
2023/12/31 11:13:04;;;;;;;10.17;6.63;;;7.40;99.90;;;;;;8237827;28;20275;-79
2023/12/31 11:17:39;;;;;;;14.57;7.40;;;7.40;99.90;;;;;;8247756;28;20219;-80
2023/12/31 11:22:13;;;;;;;11.67;7.13;;;7.50;99.90;;;;;;8241232;28;20188;-80
2023/12/31 11:26:14;;;;;;;11.57;7.30;;;7.60;99.90;;;;;;8262824;28;20184;-79
2023/12/31 11:30:14;;;;;;;12.27;7.47;;;7.60;99.90;;;;;;8257627;28;20235;-80
2023/12/31 11:34:18;;;;;;;10.27;7.03;;;7.70;99.90;;;;;;8237810;28;20195;-78
2023/12/31 11:38:20;;;;;;;9.17;6.63;;;7.80;99.90;;;;;;8236154;28;20191;-79
2023/12/31 11:42:25;;;;;;;9.30;6.97;;;7.90;99.90;;;;;;8235761;28;20194;-79
2023/12/31 11:46:37;;;;;;;11.00;6.90;;;8.00;99.90;;;;;;8242203;28;20196;-79
2023/12/31 11:50:38;;;;;;;11.20;7.27;;;8.00;99.90;;;;;;8242953;28;20204;-79
2023/12/31 11:54:43;;;;;;;18.50;9.87;;;8.00;99.90;;;;;;8252962;28;20187;-79
2023/12/31 11:58:45;;;;;;;14.30;9.73;;;8.10;99.90;;;;;;8236536;28;20216;-79
2023/12/31 12:02:50;;;;;;;12.70;8.47;;;8.10;99.90;;;;;;8238406;28;20543;-80
2023/12/31 12:06:51;;;;;;;19.43;9.63;;;8.10;99.90;;;;;;8236477;28;20182;-79
2023/12/31 12:10:52;;;;;;;15.93;10.07;;;8.10;99.90;;;;;;8242994;28;20526;-79
2023/12/31 12:14:53;;;;;;;18.10;9.60;;;8.10;99.90;;;;;;8241219;28;20242;-79
2023/12/31 12:19:05;;;;;;;12.17;7.73;;;8.10;99.90;;;;;;8270112;28;20172;-79
2023/12/31 12:23:06;;;;;;;11.73;7.33;;;8.20;99.90;;;;;;8258715;28;20186;-79
2023/12/31 12:27:07;;;;;;;13.17;8.70;;;8.10;99.90;;;;;;8299497;28;20190;-76
2023/12/31 12:31:07;;;;;;;15.73;9.43;;;8.10;99.90;;;;;;8287480;28;20212;-79
2023/12/31 12:35:08;;;;;;;16.10;9.07;;;8.00;99.90;;;;;;8304173;28;20201;-80
2023/12/31 12:39:16;;;;;;;13.53;7.40;;;8.10;99.90;;;;;;8293422;28;20204;-79
2023/12/31 12:43:17;;;;;;;10.60;6.33;;;8.00;99.90;;;;;;8248071;28;20184;-81
2023/12/31 12:47:20;;;;;;;13.90;8.27;;;7.90;99.90;;;;;;8257185;28;20266;-79
2023/12/31 12:51:24;;;;;;;13.47;8.27;;;8.00;99.90;;;;;;8274577;28;20215;-78
2023/12/31 12:55:26;;;;;;;12.53;7.03;;;8.00;99.90;;;;;;8254119;28;20184;-79
2023/12/31 12:59:27;;;;;;;11.53;6.03;;;7.90;99.90;;;;;;8259459;28;20203;-79
2023/12/31 13:03:28;;;;;;;10.43;6.20;;;7.70;99.90;;;;;;8265672;28;20195;-80
2023/12/31 13:07:29;;;;;;;10.13;5.87;;;7.70;99.90;;;;;;8263812;28;20198;-79
2023/12/31 13:11:34;;;;;;;9.03;6.67;;;7.70;99.90;;;;;;8257276;28;20449;-79
2023/12/31 13:15:35;;;;;;;11.03;7.37;;;7.60;99.90;;;;;;8239707;28;20227;-80
2023/12/31 13:19:35;;;;;;;9.40;6.20;;;7.60;99.90;;;;;;8246198;28;20197;-79
2023/12/31 13:23:36;;;;;;;12.80;7.10;;;7.50;99.90;;;;;;8244544;28;20282;-79
2023/12/31 13:27:37;;;;;;;10.97;7.13;;;7.50;99.90;;;;;;8246585;28;20195;-79
2023/12/31 13:31:41;;;;;;;12.23;6.97;;;7.40;99.90;;;;;;8267377;28;20215;-79
2023/12/31 13:35:42;;;;;;;8.63;6.07;;;7.30;99.90;;;;;;8240571;28;20267;-79
2023/12/31 13:39:42;;;;;;;9.70;6.43;;;7.30;99.90;;;;;;8257092;28;20195;-79
2023/12/31 13:43:44;;;;;;;9.27;6.93;;;7.20;99.90;;;;;;8239446;28;20278;-78
2023/12/31 13:47:49;;;;;;;8.13;5.97;;;7.20;99.90;;;;;;8238791;28;20311;-79
2023/12/31 13:51:52;;;;;;;10.03;5.47;;;7.10;99.90;;;;;;8252047;28;20232;-78
2023/12/31 13:55:53;;;;;;;19.23;12.93;;;7.10;99.90;;;;;;8254383;28;20651;-79
2023/12/31 13:59:54;;;;;;;13.90;9.53;;;7.00;99.90;;;;;;8237999;28;20219;-78
2023/12/31 14:03:55;;;;;;;11.90;7.37;;;6.90;99.90;;;;;;8236191;28;20195;-79
2023/12/31 14:07:55;;;;;;;11.43;7.57;;;6.80;99.90;;;;;;8237472;28;20194;-78
2023/12/31 14:11:59;;;;;;;9.57;7.00;;;6.80;99.90;;;;;;8247349;28;20215;-79
2023/12/31 14:16:00;;;;;;;9.23;6.60;;;6.70;1.00;;;;;;8249562;28;20235;-78
2023/12/31 14:20:01;;;;;;;10.10;6.60;;;6.60;1.00;;;;;;8248046;28;20195;-79
2023/12/31 14:24:05;;;;;;;9.93;6.50;;;6.40;1.00;;;;;;8249637;28;20192;-78
2023/12/31 14:28:07;;;;;;;10.40;7.27;;;6.30;1.00;;;;;;8249888;28;20199;-79
2023/12/31 14:32:08;;;;;;;11.83;7.10;;;6.30;12.50;;;;;;8250756;28;20207;-78
2023/12/31 14:36:09;;;;;;;12.47;6.27;;;6.20;66.20;;;;;;8240017;28;20191;-78
2023/12/31 14:40:10;;;;;;;9.93;6.60;;;6.10;99.90;;;;;;8236026;28;20230;-78
2023/12/31 14:44:12;;;;;;;9.93;6.30;;;6.10;99.90;;;;;;8236216;28;20187;-79
2023/12/31 14:48:13;;;;;;;12.40;6.67;;;6.00;99.90;;;;;;8251933;28;20192;-78
2023/12/31 14:52:14;;;;;;;14.73;7.80;;;6.00;99.90;;;;;;8234348;28;20222;-77
2023/12/31 14:56:15;;;;;;;10.27;6.57;;;5.90;99.90;;;;;;8230832;28;20187;-79
2023/12/31 15:00:16;;;;;;;11.20;6.90;;;5.90;99.90;;;;;;8249575;28;20203;-79
2023/12/31 15:04:17;;;;;;;13.10;8.03;;;5.90;99.90;;;;;;8234768;28;20194;-79
2023/12/31 15:08:18;;;;;;;11.37;7.87;;;5.90;99.90;;;;;;8235079;28;20315;-78
2023/12/31 15:12:22;;;;;;;14.57;8.13;;;5.90;99.90;;;;;;8235052;28;20207;-78
2023/12/31 15:16:25;;;;;;;11.77;8.07;;;5.80;99.90;;;;;;8254357;28;20657;-79
2023/12/31 15:20:26;;;;;;;12.33;7.33;;;5.80;99.90;;;;;;8233668;28;20196;-80
2023/12/31 15:24:30;;;;;;;12.73;8.07;;;5.80;99.90;;;;;;8251526;28;20192;-80
2023/12/31 15:28:32;;;;;;;14.00;7.73;;;5.80;99.90;;;;;;8233425;28;20191;-79
2023/12/31 15:32:36;;;;;;;18.67;12.83;;;5.80;99.90;;;;;;8252550;28;20241;-78
2023/12/31 15:36:37;;;;;;;17.37;12.53;;;5.80;99.90;;;;;;8249717;28;20192;-78
2023/12/31 15:40:39;;;;;;;15.73;10.37;;;5.70;99.90;;;;;;8251807;28;20191;-78
2023/12/31 15:44:40;;;;;;;14.30;9.50;;;5.70;99.90;;;;;;8259302;28;20216;-79
2023/12/31 15:48:41;;;;;;;17.20;11.53;;;5.60;99.90;;;;;;8271851;28;20172;-82
2023/12/31 15:52:42;;;;;;;18.50;12.63;;;5.60;99.90;;;;;;8292703;28;20250;-82
2023/12/31 15:56:43;;;;;;;18.20;12.00;;;5.50;99.90;;;;;;8279662;28;20203;-82
2023/12/31 16:00:43;;;;;;;26.27;17.83;;;5.50;99.90;;;;;;8260584;28;20207;-82
2023/12/31 16:04:46;;;;;;;25.17;16.57;;;5.40;99.90;;;;;;8243044;28;20227;-82
2023/12/31 16:08:46;;;;;;;18.83;13.37;;;5.40;99.90;;;;;;8262911;28;20195;-82
2023/12/31 16:12:47;;;;;;;41.23;23.17;;;5.30;99.90;;;;;;8238132;28;20633;-83
2023/12/31 16:16:48;;;;;;;33.43;19.50;;;5.30;99.90;;;;;;8240428;28;20276;-81
2023/12/31 16:20:49;;;;;;;32.60;18.00;;;5.20;99.90;;;;;;8242220;28;20208;-81
2023/12/31 16:24:50;;;;;;;26.50;16.47;;;5.20;99.90;;;;;;8243197;28;20195;-82
2023/12/31 16:28:51;;;;;;;26.83;15.47;;;5.10;99.90;;;;;;8236718;28;20430;-81
2023/12/31 16:32:52;;;;;;;33.77;19.77;;;5.00;99.90;;;;;;8237143;28;20229;-81
2023/12/31 16:36:53;;;;;;;45.17;26.30;;;4.90;99.90;;;;;;8240559;28;20192;-81
2023/12/31 16:40:54;;;;;;;40.73;25.70;;;4.90;1.00;;;;;;8253728;28;20191;-82
2023/12/31 16:44:55;;;;;;;49.80;27.07;;;4.90;1.00;;;;;;8235962;28;20207;-82
2023/12/31 16:48:56;;;;;;;48.20;28.00;;;4.80;1.00;;;;;;8235746;28;20487;-81
2023/12/31 16:52:57;;;;;;;37.90;22.00;;;4.70;1.00;;;;;;8240676;28;20265;-82
2023/12/31 16:56:59;;;;;;;28.93;17.53;;;4.60;1.00;;;;;;8244679;28;20278;-82
2023/12/31 17:01:00;;;;;;;30.60;18.93;;;4.50;1.00;;;;;;8244367;28;20311;-82
2023/12/31 17:05:04;;;;;;;29.13;18.63;;;4.50;40.50;;;;;;8266428;28;20207;-82
2023/12/31 17:09:05;;;;;;;27.20;18.50;;;4.50;99.90;;;;;;8242038;28;20242;-81
2023/12/31 17:13:06;;;;;;;47.13;27.77;;;4.40;99.90;;;;;;8258044;28;20196;-81
2023/12/31 17:17:07;;;;;;;40.27;23.40;;;4.30;99.90;;;;;;8259091;28;20254;-81
2023/12/31 17:21:09;;;;;;;38.40;22.50;;;4.30;99.90;;;;;;8267628;28;20180;-81
2023/12/31 17:25:10;;;;;;;42.43;23.57;;;4.20;1.00;;;;;;8246567;28;20195;-82
2023/12/31 17:29:11;;;;;;;69.80;32.60;;;4.20;1.00;;;;;;8258117;28;20218;-82
2023/12/31 17:33:12;;;;;;;71.53;35.53;;;4.20;1.00;;;;;;8243808;28;20184;-82
2023/12/31 17:37:13;;;;;;;108.90;50.10;;;4.20;63.60;;;;;;8240402;28;20184;-82
2023/12/31 17:41:14;;;;;;;113.43;54.53;;;4.20;99.90;;;;;;8258773;28;20191;-82
2023/12/31 17:45:15;;;;;;;96.87;50.60;;;4.20;99.90;;;;;;8251714;28;20199;-82
2023/12/31 17:49:16;;;;;;;98.73;50.57;;;4.20;99.90;;;;;;8241487;28;20192;-82
2023/12/31 17:53:17;;;;;;;64.23;35.53;;;4.10;5.40;;;;;;8258175;28;20192;-82
2023/12/31 17:57:21;;;;;;;35.80;21.20;;;4.00;1.00;;;;;;8244137;28;20192;-82
2023/12/31 18:01:23;;;;;;;27.53;16.03;;;3.90;1.00;;;;;;8231888;28;20200;-82
2023/12/31 18:05:23;;;;;;;24.17;14.43;;;3.80;57.60;;;;;;8243491;28;20295;-82
2023/12/31 18:09:24;;;;;;;25.87;16.10;;;3.70;99.90;;;;;;8235088;28;20195;-82
2023/12/31 18:13:25;;;;;;;22.63;15.03;;;3.70;1.00;;;;;;8246021;28;20198;-82
2023/12/31 18:17:27;;;;;;;25.93;16.77;;;3.80;1.00;;;;;;8252535;28;20373;-82
2023/12/31 18:21:28;;;;;;;41.90;26.13;;;3.80;1.00;;;;;;8247954;28;20288;-81
2023/12/31 18:25:29;;;;;;;50.17;30.53;;;3.90;1.00;;;;;;8240088;28;20202;-82
2023/12/31 18:29:30;;;;;;;37.10;24.17;;;3.90;1.00;;;;;;8258967;28;20215;-82
2023/12/31 18:33:31;;;;;;;39.50;22.67;;;4.00;1.00;;;;;;8255669;28;20195;-82
2023/12/31 18:37:31;;;;;;;41.47;25.77;;;4.10;1.00;;;;;;8258274;28;20390;-82
2023/12/31 18:41:32;;;;;;;39.47;24.00;;;4.10;1.00;;;;;;8237558;28;20206;-82
2023/12/31 18:45:35;;;;;;;32.03;22.00;;;4.10;1.00;;;;;;8261609;28;20191;-82
2023/12/31 18:49:35;;;;;;;34.23;21.13;;;4.20;99.90;;;;;;8262595;28;20219;-82
2023/12/31 18:53:37;;;;;;;30.03;19.77;;;4.20;99.90;;;;;;8238792;28;20192;-81
2023/12/31 18:57:41;;;;;;;33.60;20.43;;;4.20;99.90;;;;;;8260183;28;20187;-81
2023/12/31 19:01:42;;;;;;;38.00;23.80;;;4.10;99.90;;;;;;8271812;28;20251;-82
2023/12/31 19:05:43;;;;;;;106.00;51.67;;;4.10;99.90;;;;;;8279310;28;20188;-82
2023/12/31 19:09:44;;;;;;;89.37;46.13;;;4.10;99.90;;;;;;8274443;28;20244;-82
2023/12/31 19:13:45;;;;;;;60.07;34.27;;;4.10;1.00;;;;;;8275762;28;20314;-83
2023/12/31 19:17:46;;;;;;;43.27;25.80;;;4.10;1.00;;;;;;8271229;28;20211;-80
2023/12/31 19:21:50;;;;;;;60.53;34.27;;;4.00;99.90;;;;;;8242652;28;20245;-79
2023/12/31 19:25:52;;;;;;;67.13;36.13;;;3.80;99.90;;;;;;8239582;28;20195;-80
2023/12/31 19:29:52;;;;;;;66.03;33.73;;;3.80;99.90;;;;;;8244151;28;20270;-80
2023/12/31 19:33:53;;;;;;;54.13;30.83;;;3.60;1.00;;;;;;8242206;28;20436;-79
2023/12/31 19:37:54;;;;;;;55.63;29.80;;;3.60;1.00;;;;;;8247612;28;20192;-79
2023/12/31 19:41:55;;;;;;;52.50;29.77;;;3.50;55.40;;;;;;8258972;28;20180;-79
2023/12/31 19:45:56;;;;;;;50.43;28.40;;;3.60;99.90;;;;;;8246739;28;20275;-79
2023/12/31 19:49:57;;;;;;;44.60;25.97;;;3.60;1.00;;;;;;8244137;28;20215;-79
2023/12/31 19:53:58;;;;;;;51.57;31.17;;;3.60;1.00;;;;;;8258683;28;20195;-79
2023/12/31 19:57:59;;;;;;;52.17;29.87;;;3.60;99.90;;;;;;8244217;28;20183;-79
2023/12/31 20:02:00;;;;;;;38.53;24.63;;;3.60;99.90;;;;;;8241006;28;20300;-79
2023/12/31 20:06:01;;;;;;;43.80;25.63;;;3.50;1.00;;;;;;8261415;28;20207;-79
2023/12/31 20:10:02;;;;;;;42.57;24.07;;;3.50;99.90;;;;;;8256629;28;20215;-79
2023/12/31 20:14:03;;;;;;;33.20;20.57;;;3.50;1.00;;;;;;8239342;28;20188;-79
2023/12/31 20:18:05;;;;;;;32.17;20.67;;;3.50;83.50;;;;;;8240516;28;20192;-79
2023/12/31 20:22:08;;;;;;;29.03;18.17;;;3.50;1.00;;;;;;8252101;28;20286;-86
2023/12/31 20:26:09;;;;;;;27.53;17.97;;;3.50;27.60;;;;;;8267360;28;20192;-85
2023/12/31 20:30:11;;;;;;;26.93;18.70;;;3.50;99.90;;;;;;8242013;28;20220;-83
2023/12/31 20:34:15;;;;;;;25.87;17.60;;;3.40;90.80;;;;;;8248923;28;20215;-84
2023/12/31 20:38:16;;;;;;;31.90;17.80;;;3.40;1.00;;;;;;8256265;28;21160;-83
2023/12/31 20:42:17;;;;;;;23.63;17.20;;;3.40;26.50;;;;;;8239240;28;20199;-84
2023/12/31 20:46:18;;;;;;;28.07;17.23;;;3.30;99.90;;;;;;8241578;28;20223;-83
2023/12/31 20:50:23;;;;;;;27.87;17.40;;;3.40;1.00;;;;;;8240871;28;20215;-84
2023/12/31 20:54:25;;;;;;;26.00;17.80;;;3.50;99.90;;;;;;8243280;28;20192;-83